createdAt,value
2018-11-06T00:00:12.820Z,60.80
2018-11-06T00:02:41.712Z,60.70
2018-11-06T00:05:12.876Z,60.00
2018-11-06T00:07:42.201Z,59.10
2018-11-06T00:10:10.894Z,61.90
2018-11-06T00:12:40.024Z,56.87
2018-11-06T00:15:09.223Z,54.27
2018-11-06T00:17:38.016Z,59.33
2018-11-06T00:20:08.341Z,59.23
2018-11-06T00:22:37.442Z,62.20
2018-11-06T00:25:07.265Z,59.67
2018-11-06T00:27:36.006Z,59.10
2018-11-06T00:30:04.943Z,53.43
2018-11-06T00:32:33.571Z,51.53
2018-11-06T00:35:02.282Z,62.00
2018-11-06T00:37:31.138Z,58.80
2018-11-06T00:39:59.911Z,62.33
2018-11-06T00:42:28.567Z,59.87
2018-11-06T00:44:57.423Z,57.97
2018-11-06T00:47:26.413Z,54.93
2018-11-06T00:49:55.043Z,54.07
2018-11-06T00:52:23.686Z,57.40
2018-11-06T00:54:52.341Z,54.70
2018-11-06T00:57:21.050Z,60.70
2018-11-06T00:59:52.525Z,59.17
2018-11-06T01:02:21.412Z,61.07
2018-11-06T01:04:50.298Z,61.57
2018-11-06T01:07:19.090Z,55.67
2018-11-06T01:09:48.474Z,55.10
2018-11-06T01:12:17.162Z,56.60
2018-11-06T01:14:46.409Z,57.53
2018-11-06T01:17:15.085Z,54.40
2018-11-06T01:19:43.872Z,57.03
2018-11-06T01:22:12.885Z,59.37
2018-11-06T01:24:41.489Z,61.83
2018-11-06T01:27:10.137Z,51.80
2018-11-06T01:29:38.911Z,61.23
2018-11-06T01:32:07.548Z,66.73
2018-11-06T01:34:36.245Z,66.23
2018-11-06T01:37:04.900Z,55.50
2018-11-06T01:39:33.498Z,58.57
2018-11-06T01:42:02.107Z,60.33
2018-11-06T01:44:30.687Z,58.97
2018-11-06T01:46:59.341Z,51.47
2018-11-06T01:49:27.982Z,64.63
2018-11-06T01:51:56.545Z,53.80
2018-11-06T01:54:25.130Z,55.53
2018-11-06T01:56:53.907Z,57.40
2018-11-06T01:59:22.941Z,55.40
2018-11-06T02:01:51.900Z,55.27
2018-11-06T02:04:20.584Z,62.80
2018-11-06T02:06:49.268Z,61.77
2018-11-06T02:09:17.898Z,63.00
2018-11-06T02:11:46.528Z,61.40
2018-11-06T02:14:15.365Z,55.80
2018-11-06T02:16:43.969Z,57.90
2018-11-06T02:19:12.609Z,57.70
2018-11-06T02:21:41.239Z,66.27
2018-11-06T02:24:09.878Z,53.77
2018-11-06T02:26:38.508Z,59.73
2018-11-06T02:29:07.159Z,62.50
2018-11-06T02:31:35.798Z,67.23
2018-11-06T02:34:04.468Z,64.20
2018-11-06T02:36:33.364Z,66.33
2018-11-06T02:39:02.113Z,67.23
2018-11-06T02:41:30.956Z,62.90
2018-11-06T02:43:59.583Z,60.57
2018-11-06T02:46:28.171Z,62.53
2018-11-06T02:48:56.913Z,54.43
2018-11-06T02:51:25.593Z,61.00
2018-11-06T02:53:54.352Z,70.33
2018-11-06T02:56:22.962Z,56.63
2018-11-06T02:58:51.583Z,51.43
2018-11-06T03:01:20.391Z,58.17
2018-11-06T03:03:49.101Z,49.97
2018-11-06T03:06:17.984Z,61.40
2018-11-06T03:08:46.742Z,49.70
2018-11-06T03:11:15.359Z,54.70
2018-11-06T03:13:44.053Z,47.43
2018-11-06T03:16:12.839Z,41.80
2018-11-06T03:18:41.466Z,44.90
2018-11-06T03:21:10.049Z,45.03
2018-11-06T03:23:38.888Z,42.27
2018-11-06T03:26:07.730Z,45.80
2018-11-06T03:28:36.425Z,44.57
2018-11-06T03:31:05.070Z,56.20
2018-11-06T03:33:33.682Z,42.50
2018-11-06T03:36:02.409Z,43.30
2018-11-06T03:38:31.434Z,38.83
2018-11-06T03:41:00.021Z,41.63
2018-11-06T03:43:28.807Z,45.20
2018-11-06T03:45:57.818Z,39.00
2018-11-06T03:48:28.400Z,41.50
2018-11-06T03:50:57.190Z,39.93
2018-11-06T03:53:25.762Z,38.60
2018-11-06T03:55:54.363Z,38.67
2018-11-06T03:58:22.996Z,38.30
2018-11-06T04:00:52.196Z,48.70
2018-11-06T04:03:20.826Z,38.80
2018-11-06T04:05:49.484Z,60.23
2018-11-06T04:08:18.091Z,32.97
2018-11-06T04:10:46.731Z,44.20
2018-11-06T04:13:15.396Z,49.53
2018-11-06T04:15:43.980Z,38.30
2018-11-06T04:18:12.608Z,48.80
2018-11-06T04:20:42.022Z,49.17
2018-11-06T04:23:10.626Z,39.90
2018-11-06T04:25:39.269Z,62.27
2018-11-06T04:28:07.866Z,40.13
2018-11-06T04:30:36.510Z,44.67
2018-11-06T04:33:05.206Z,68.70
2018-11-06T04:35:33.798Z,41.13
2018-11-06T04:38:02.405Z,36.70
2018-11-06T04:40:31.079Z,50.07
2018-11-06T04:42:59.691Z,68.27
2018-11-06T04:45:28.291Z,38.97
2018-11-06T04:47:56.922Z,28.90
2018-11-06T04:50:25.970Z,32.83
2018-11-06T04:52:54.543Z,27.57
2018-11-06T04:55:23.185Z,62.00
2018-11-06T04:57:51.796Z,69.37
2018-11-06T05:00:20.456Z,63.00
2018-11-06T05:02:49.101Z,33.60
2018-11-06T05:05:17.698Z,46.90
2018-11-06T05:07:46.335Z,31.67
2018-11-06T05:10:15.313Z,32.03
2018-11-06T05:12:44.277Z,25.00
2018-11-06T05:15:14.110Z,44.83
2018-11-06T05:17:42.828Z,22.80
2018-11-06T05:20:14.082Z,22.20
2018-11-06T05:22:43.013Z,31.77
2018-11-06T05:25:11.662Z,29.20
2018-11-06T05:27:40.424Z,33.03
2018-11-06T05:30:10.374Z,29.60
2018-11-06T05:32:39.667Z,46.80
2018-11-06T05:35:08.988Z,29.37
2018-11-06T05:37:37.723Z,27.87
2018-11-06T05:40:17.611Z,40.50
2018-11-06T05:42:46.247Z,30.53
2018-11-06T05:45:15.012Z,28.27
2018-11-06T05:47:43.628Z,25.80
2018-11-06T05:50:12.277Z,24.67
2018-11-06T05:52:40.926Z,23.87
2018-11-06T05:55:09.674Z,45.10
2018-11-06T05:57:38.362Z,28.93
2018-11-06T06:00:07.724Z,23.57
2018-11-06T06:02:36.352Z,27.07
2018-11-06T06:05:05.957Z,28.97
2018-11-06T06:07:34.641Z,21.73
2018-11-06T06:10:03.483Z,22.40
2018-11-06T06:12:32.155Z,22.67
2018-11-06T06:15:00.751Z,17.67
2018-11-06T06:17:29.526Z,28.73
2018-11-06T06:19:58.129Z,30.50
2018-11-06T06:22:26.772Z,30.60
2018-11-06T06:24:55.386Z,26.93
2018-11-06T06:27:24.023Z,32.73
2018-11-06T06:29:52.652Z,21.63
2018-11-06T06:32:22.335Z,22.13
2018-11-06T06:34:51.015Z,24.83
2018-11-06T06:37:19.614Z,20.13
2018-11-06T06:39:48.279Z,17.57
2018-11-06T06:42:16.926Z,21.50
2018-11-06T06:44:45.500Z,16.37
2018-11-06T06:47:14.213Z,19.47
2018-11-06T06:49:42.826Z,18.83
2018-11-06T06:52:11.447Z,20.77
2018-11-06T06:54:40.185Z,20.57
2018-11-06T06:57:08.744Z,18.37
2018-11-06T06:59:37.486Z,19.53
2018-11-06T07:02:06.203Z,20.27
2018-11-06T07:04:34.836Z,17.10
2018-11-06T07:07:03.485Z,17.90
2018-11-06T07:09:32.168Z,27.53
2018-11-06T07:12:00.790Z,18.47
2018-11-06T07:14:29.518Z,31.97
2018-11-06T07:16:58.161Z,18.70
2018-11-06T07:19:26.970Z,16.93
2018-11-06T07:21:55.670Z,21.20
2018-11-06T07:24:24.308Z,17.27
2018-11-06T07:26:52.920Z,19.20
2018-11-06T07:29:21.515Z,19.60
2018-11-06T07:31:50.088Z,17.27
2018-11-06T07:34:18.733Z,22.63
2018-11-06T07:36:47.904Z,15.23
2018-11-06T07:39:16.540Z,15.27
2018-11-06T07:41:45.163Z,15.10
2018-11-06T07:44:13.755Z,15.13
2018-11-06T07:46:42.420Z,17.97
2018-11-06T07:49:11.085Z,17.27
2018-11-06T07:51:39.782Z,17.57
2018-11-06T07:54:08.363Z,24.53
2018-11-06T07:56:36.991Z,15.20
2018-11-06T07:59:05.850Z,19.70
2018-11-06T08:01:34.442Z,16.63
2018-11-06T08:04:03.134Z,20.77
2018-11-06T08:06:31.731Z,17.53
2018-11-06T08:09:00.386Z,17.80
2018-11-06T08:11:29.090Z,18.23
2018-11-06T08:13:57.694Z,18.37
2018-11-06T08:16:26.353Z,17.03
2018-11-06T08:18:55.008Z,17.23
2018-11-06T08:21:23.618Z,19.00
2018-11-06T08:23:52.238Z,19.83
2018-11-06T08:26:20.908Z,18.23
2018-11-06T08:28:49.515Z,16.73
2018-11-06T08:31:18.375Z,18.97
2018-11-06T08:33:46.912Z,18.70
2018-11-06T08:36:15.552Z,18.00
2018-11-06T08:38:44.195Z,21.27
2018-11-06T08:41:12.817Z,17.53
2018-11-06T08:43:41.466Z,19.77
2018-11-06T08:46:10.179Z,18.50
2018-11-06T08:48:38.851Z,18.43
2018-11-06T08:51:07.462Z,19.00
2018-11-06T08:53:36.158Z,16.93
2018-11-06T08:56:04.932Z,17.83
2018-11-06T08:58:33.594Z,16.83
2018-11-06T09:01:02.198Z,19.23
2018-11-06T09:03:30.937Z,20.20
2018-11-06T09:05:59.608Z,18.97
2018-11-06T09:08:28.258Z,17.60
2018-11-06T09:10:56.910Z,18.20
2018-11-06T09:13:25.557Z,16.63
2018-11-06T09:15:54.214Z,17.50
2018-11-06T09:18:22.819Z,19.20
2018-11-06T09:20:51.474Z,18.00
2018-11-06T09:23:20.123Z,19.40
2018-11-06T09:25:48.778Z,18.90
2018-11-06T09:28:17.478Z,18.73
2018-11-06T09:30:46.123Z,23.07
2018-11-06T09:33:14.677Z,18.10
2018-11-06T09:35:43.329Z,19.67
2018-11-06T09:38:11.937Z,19.13
2018-11-06T09:40:40.728Z,17.33
2018-11-06T09:43:09.376Z,19.80
2018-11-06T09:45:38.004Z,17.70
2018-11-06T09:48:06.735Z,18.03
2018-11-06T09:50:35.467Z,22.23
2018-11-06T09:53:04.157Z,17.47
2018-11-06T09:55:32.887Z,21.37
2018-11-06T09:58:02.346Z,21.47
2018-11-06T10:00:30.975Z,18.63
2018-11-06T10:02:59.608Z,18.17
2018-11-06T10:05:28.313Z,19.83
2018-11-06T10:07:57.110Z,19.43
2018-11-06T10:10:25.660Z,19.53
2018-11-06T10:12:54.266Z,19.57
2018-11-06T10:15:22.943Z,19.53
2018-11-06T10:17:52.250Z,19.40
2018-11-06T10:20:21.479Z,18.17
2018-11-06T10:22:50.272Z,20.10
2018-11-06T10:25:19.011Z,18.40
2018-11-06T10:27:47.647Z,20.90
2018-11-06T10:30:18.399Z,20.13
2018-11-06T10:32:47.038Z,18.43
2018-11-06T10:35:15.763Z,20.03
2018-11-06T10:37:44.413Z,20.73
2018-11-06T10:40:15.060Z,19.27
2018-11-06T10:42:44.355Z,16.37
2018-11-06T10:45:12.988Z,16.83
2018-11-06T10:47:41.658Z,18.90
2018-11-06T10:50:11.643Z,19.73
2018-11-06T10:52:40.477Z,17.20
2018-11-06T10:55:09.545Z,17.77
2018-11-06T10:57:39.352Z,18.97
2018-11-06T11:00:17.218Z,18.53
2018-11-06T11:02:51.060Z,18.83
2018-11-06T11:05:20.335Z,23.93
2018-11-06T11:07:49.062Z,19.73
2018-11-06T11:10:17.695Z,19.80
2018-11-06T11:12:46.318Z,17.67
2018-11-06T11:15:14.971Z,20.17
2018-11-06T11:17:43.645Z,16.73
2018-11-06T11:20:13.517Z,17.93
2018-11-06T11:22:42.405Z,17.93
2018-11-06T11:25:12.623Z,18.37
2018-11-06T11:27:41.650Z,18.07
2018-11-06T11:30:11.937Z,17.03
2018-11-06T11:32:41.969Z,17.83
2018-11-06T11:35:10.682Z,18.53
2018-11-06T11:37:39.396Z,16.97
2018-11-06T11:40:09.528Z,14.85
2018-11-06T11:42:38.194Z,17.57
2018-11-06T11:45:08.135Z,19.63
2018-11-06T11:47:36.973Z,17.37
2018-11-06T11:50:06.551Z,15.90
2018-11-06T11:52:35.257Z,17.83
2018-11-06T11:55:04.255Z,15.83
2018-11-06T11:57:32.885Z,16.07
2018-11-06T12:00:01.546Z,15.33
2018-11-06T12:02:30.167Z,18.30
2018-11-06T12:04:59.391Z,15.33
2018-11-06T12:07:28.070Z,16.80
2018-11-06T12:09:56.700Z,15.70
2018-11-06T12:12:25.351Z,17.77
2018-11-06T12:14:54.021Z,15.93
2018-11-06T12:17:22.656Z,18.63
2018-11-06T12:19:51.338Z,15.97
2018-11-06T12:22:20.006Z,15.27
2018-11-06T12:24:48.915Z,15.03
2018-11-06T12:27:17.387Z,18.23
2018-11-06T12:29:46.033Z,17.67
2018-11-06T12:32:14.691Z,15.47
2018-11-06T12:34:43.322Z,16.17
2018-11-06T12:37:11.987Z,15.60
2018-11-06T12:39:40.677Z,16.63
2018-11-06T12:42:09.319Z,16.57
2018-11-06T12:44:37.946Z,18.73
2018-11-06T12:47:06.713Z,16.02
2018-11-06T12:49:35.334Z,17.43
2018-11-06T12:52:03.961Z,18.40
2018-11-06T12:54:32.609Z,18.77
2018-11-06T12:57:01.271Z,20.13
2018-11-06T12:59:29.885Z,15.80
2018-11-06T13:01:58.548Z,19.87
2018-11-06T13:04:27.231Z,19.23
2018-11-06T13:06:55.925Z,15.50
2018-11-06T13:09:24.546Z,16.73
2018-11-06T13:11:53.176Z,16.50
2018-11-06T13:14:21.949Z,17.05
2018-11-06T13:16:50.629Z,18.20
2018-11-06T13:19:19.282Z,16.62
2018-11-06T13:21:47.991Z,17.02
2018-11-06T13:24:16.648Z,18.05
2018-11-06T13:26:45.276Z,16.52
2018-11-06T13:29:13.933Z,16.52
2018-11-06T13:31:42.617Z,15.28
2018-11-06T13:34:11.247Z,17.83
2018-11-06T13:36:39.966Z,17.17
2018-11-06T13:39:10.257Z,17.25
2018-11-06T13:41:39.096Z,17.07
2018-11-06T13:44:08.367Z,16.48
2018-11-06T13:46:36.882Z,19.73
2018-11-06T13:49:05.840Z,17.65
2018-11-06T13:51:34.491Z,20.00
2018-11-06T13:54:03.127Z,17.15
2018-11-06T13:56:31.857Z,20.72
2018-11-06T13:59:00.541Z,18.42
2018-11-06T14:01:29.240Z,20.43
2018-11-06T14:03:58.013Z,19.42
2018-11-06T14:06:26.712Z,18.20
2018-11-06T14:08:55.323Z,19.40
2018-11-06T14:11:24.182Z,21.42
2018-11-06T14:13:52.844Z,18.00
2018-11-06T14:16:21.541Z,20.27
2018-11-06T14:18:50.213Z,18.50
2018-11-06T14:21:18.931Z,18.02
2018-11-06T14:23:47.546Z,20.30
2018-11-06T14:26:16.150Z,19.62
2018-11-06T14:28:44.968Z,17.62
2018-11-06T14:31:13.671Z,19.52
2018-11-06T14:33:42.344Z,18.10
2018-11-06T14:36:10.973Z,17.25
2018-11-06T14:38:39.597Z,18.50
2018-11-06T14:41:08.314Z,18.37
2018-11-06T14:43:37.014Z,18.60
2018-11-06T14:46:05.793Z,17.45
2018-11-06T14:48:34.734Z,17.98
2018-11-06T14:51:03.626Z,19.85
2018-11-06T14:53:40.464Z,20.05
2018-11-06T14:56:09.263Z,17.73
2018-11-06T14:58:39.455Z,17.57
2018-11-06T15:01:08.952Z,18.65
2018-11-06T15:03:37.714Z,17.52
2018-11-06T15:06:06.769Z,19.35
2018-11-06T15:08:35.738Z,16.10
2018-11-06T15:11:04.455Z,16.48
2018-11-06T15:13:33.135Z,18.13
2018-11-06T15:16:01.778Z,23.22
2018-11-06T15:18:30.527Z,17.03
2018-11-06T15:20:59.393Z,15.15
2018-11-06T15:55:22.546Z,18.07
2018-11-06T15:57:51.313Z,17.67
2018-11-06T16:00:21.540Z,14.90
2018-11-06T16:02:50.423Z,16.17
2018-11-06T16:05:19.090Z,18.20
2018-11-06T16:07:48.419Z,17.00
2018-11-06T16:10:19.439Z,20.53
2018-11-06T16:12:49.291Z,23.20
2018-11-06T16:15:18.205Z,21.80
2018-11-06T16:17:47.293Z,19.73
2018-11-06T16:20:17.459Z,16.90
2018-11-06T16:22:46.300Z,20.48
2018-11-06T16:25:16.101Z,17.03
2018-11-06T16:27:45.646Z,17.20
2018-11-06T16:30:17.752Z,18.77
2018-11-06T16:32:46.474Z,18.63
2018-11-06T16:35:16.445Z,17.93
2018-11-06T16:37:47.789Z,21.00
2018-11-06T16:40:17.010Z,15.63
2018-11-06T16:42:46.778Z,19.60
2018-11-06T16:45:18.522Z,18.20
2018-11-06T16:47:52.981Z,17.47
2018-11-06T16:50:22.278Z,18.90
2018-11-06T16:52:50.968Z,18.23
2018-11-06T16:55:20.187Z,18.60
2018-11-06T16:57:48.916Z,37.10
2018-11-06T17:00:20.443Z,20.40
2018-11-06T17:02:49.004Z,21.03
2018-11-06T17:05:17.827Z,20.53
2018-11-06T17:07:46.642Z,16.97
2018-11-06T17:10:16.271Z,17.53
2018-11-06T17:12:45.015Z,18.73
2018-11-06T17:15:15.846Z,19.03
2018-11-06T17:17:45.305Z,18.10
2018-11-06T17:20:14.604Z,17.43
2018-11-06T17:22:43.250Z,19.00
2018-11-06T17:25:15.205Z,22.07
2018-11-06T17:27:43.924Z,19.57
2018-11-06T17:30:15.402Z,21.30
2018-11-06T17:32:44.510Z,16.93
2018-11-06T17:35:15.020Z,19.13
2018-11-06T17:37:43.796Z,17.40
2018-11-06T17:40:15.727Z,16.57
2018-11-06T17:42:44.484Z,20.17
2018-11-06T17:45:17.945Z,16.93
2018-11-06T17:47:46.552Z,20.87
2018-11-06T17:50:16.316Z,17.90
2018-11-06T17:52:45.125Z,20.27
2018-11-06T17:55:16.775Z,19.92
2018-11-06T17:57:45.460Z,19.53
2018-11-06T18:00:18.145Z,18.87
2018-11-06T18:02:46.916Z,18.30
2018-11-06T18:05:16.566Z,25.20
2018-11-06T18:07:45.365Z,18.77
2018-11-06T18:10:15.471Z,15.93
2018-11-06T18:12:44.309Z,22.20
2018-11-06T18:15:13.050Z,23.83
2018-11-06T18:17:42.113Z,20.23
2018-11-06T18:20:12.265Z,20.37
2018-11-06T18:22:41.826Z,20.30
2018-11-06T18:25:11.656Z,20.60
2018-11-06T18:27:40.524Z,23.03
2018-11-06T18:30:14.711Z,20.13
2018-11-06T18:32:43.389Z,18.87
2018-11-06T18:35:13.048Z,21.87
2018-11-06T18:37:41.721Z,25.17
2018-11-06T18:40:13.269Z,20.43
2018-11-06T18:42:42.289Z,26.00
2018-11-06T18:45:11.078Z,22.80
2018-11-06T18:47:39.856Z,23.47
2018-11-06T18:50:10.851Z,30.60
2018-11-06T18:52:39.749Z,20.90
2018-11-06T18:55:08.831Z,20.57
2018-11-06T18:57:43.934Z,18.97
2018-11-06T19:00:14.397Z,23.77
2018-11-06T19:02:44.205Z,18.93
2018-11-06T19:05:13.007Z,23.63
2018-11-06T19:07:41.635Z,20.13
2018-11-06T19:10:11.865Z,24.40
2018-11-06T19:12:40.573Z,22.03
2018-11-06T19:15:12.675Z,23.63
2018-11-06T19:17:41.808Z,20.47
2018-11-06T19:20:10.966Z,20.37
2018-11-06T19:22:39.609Z,19.07
2018-11-06T19:25:09.655Z,24.30
2018-11-06T19:27:38.523Z,21.27
2018-11-06T19:30:09.057Z,21.30
2018-11-06T19:32:37.862Z,20.00
2018-11-06T19:35:06.716Z,20.83
2018-11-06T19:37:35.455Z,21.17
2018-11-06T19:40:04.551Z,22.77
2018-11-06T19:42:33.455Z,21.57
2018-11-06T19:45:02.024Z,21.20
2018-11-06T19:47:30.672Z,25.23
2018-11-06T19:49:59.359Z,23.43
2018-11-06T19:52:27.977Z,25.90
2018-11-06T19:54:56.622Z,20.93
2018-11-06T19:57:25.310Z,23.77
2018-11-06T19:59:53.955Z,24.57
2018-11-06T20:02:22.704Z,22.40
2018-11-06T20:04:51.417Z,22.30
2018-11-06T20:07:20.074Z,24.83
2018-11-06T20:09:48.843Z,21.40
2018-11-06T20:12:17.458Z,23.23
2018-11-06T20:14:46.066Z,20.37
2018-11-06T20:17:14.785Z,21.40
2018-11-06T20:19:43.440Z,23.83
2018-11-06T20:22:12.096Z,22.50
2018-11-06T20:24:40.715Z,24.50
2018-11-06T20:27:09.411Z,25.70
2018-11-06T20:29:38.112Z,21.67
2018-11-06T20:32:06.780Z,21.00
2018-11-06T20:34:35.452Z,19.70
2018-11-06T20:37:04.097Z,21.87
2018-11-06T20:39:32.735Z,23.70
2018-11-06T20:42:01.420Z,23.17
2018-11-06T20:44:30.084Z,26.60
2018-11-06T20:46:58.770Z,21.23
2018-11-06T20:49:27.444Z,23.97
2018-11-06T20:51:56.997Z,22.47
2018-11-06T20:54:25.658Z,21.27
2018-11-06T20:56:54.320Z,25.40
2018-11-06T20:59:23.087Z,22.60
2018-11-06T21:01:57.967Z,22.57
2018-11-06T21:04:26.852Z,24.63
2018-11-06T21:06:55.533Z,22.93
2018-11-06T21:09:24.522Z,22.77
2018-11-06T21:11:53.255Z,24.93
2018-11-06T21:14:21.898Z,21.87
2018-11-06T21:16:55.883Z,23.57
2018-11-06T21:19:24.543Z,24.40
2018-11-06T21:21:53.418Z,22.93
2018-11-06T21:24:22.071Z,25.07
2018-11-06T21:26:50.791Z,26.20
2018-11-06T21:29:19.455Z,27.83
2018-11-06T21:31:48.092Z,22.90
2018-11-06T21:34:16.741Z,25.67
2018-11-06T21:36:45.438Z,30.77
2018-11-06T21:39:14.155Z,25.73
2018-11-06T21:41:42.764Z,27.73
2018-11-06T21:44:11.461Z,23.37
2018-11-06T21:46:40.142Z,23.90
2018-11-06T21:49:08.760Z,23.47
2018-11-06T21:51:37.379Z,25.73
2018-11-06T21:54:06.621Z,23.97
2018-11-06T21:56:35.206Z,25.07
2018-11-06T21:59:03.928Z,23.10
2018-11-06T22:01:32.548Z,24.23
2018-11-06T22:04:01.214Z,25.20
2018-11-06T22:06:29.817Z,23.43
2018-11-06T22:08:58.487Z,21.67
2018-11-06T22:11:27.084Z,24.30
2018-11-06T22:13:55.688Z,22.87
2018-11-06T22:16:24.357Z,26.00
2018-11-06T22:18:53.089Z,25.03
2018-11-06T22:21:21.721Z,21.87
2018-11-06T22:23:50.380Z,25.07
2018-11-06T22:26:19.049Z,23.30
2018-11-06T22:28:47.665Z,23.60
2018-11-06T22:31:16.336Z,26.43
2018-11-06T22:33:44.935Z,25.03
2018-11-06T22:36:13.539Z,25.20
2018-11-06T22:38:42.131Z,25.53
2018-11-06T22:41:10.764Z,29.13
2018-11-06T22:43:39.413Z,23.90
2018-11-06T22:46:08.036Z,27.83
2018-11-06T22:48:36.654Z,23.57
2018-11-06T22:51:05.443Z,24.43
2018-11-06T22:53:34.796Z,23.60
2018-11-06T22:56:03.589Z,26.73
2018-11-06T22:58:32.251Z,25.97
2018-11-06T23:01:06.263Z,22.97
2018-11-06T23:03:34.909Z,21.70
2018-11-06T23:06:03.646Z,25.47
2018-11-06T23:08:32.241Z,24.20
2018-11-06T23:11:00.895Z,24.87
2018-11-06T23:13:29.531Z,23.30
2018-11-06T23:15:58.199Z,24.00
2018-11-06T23:18:26.800Z,23.33
2018-11-06T23:20:55.398Z,25.57
2018-11-06T23:23:24.036Z,26.00
2018-11-06T23:25:52.667Z,24.43
2018-11-06T23:28:21.323Z,26.53
2018-11-06T23:30:49.946Z,22.10
2018-11-06T23:33:18.579Z,23.40
2018-11-06T23:35:47.202Z,26.10
2018-11-06T23:38:15.825Z,26.50
2018-11-06T23:40:44.459Z,24.47
2018-11-06T23:43:13.054Z,25.27
2018-11-06T23:45:41.706Z,21.97
2018-11-06T23:48:10.351Z,27.60
2018-11-06T23:50:38.951Z,23.77
2018-11-06T23:53:07.711Z,23.83
2018-11-06T23:55:36.403Z,25.40
2018-11-06T23:58:05.069Z,29.00
